Time,TemperatureF,DewpointF,PressureIn,WindDirection,WindDirectionDegrees,WindSpeedMPH,WindSpeedGustMPH,Humidity,HourlyPrecipIn,Conditions,Clouds,dailyrainin,SoftwareType,DateUTC
2013-09-19 00:00:00,74.8,73.6,30.00,North,0,0.0,2.0,96,0.05,,---,0.00,VWS V14.01,2013-09-19 04:00:00,
2013-09-19 00:15:00,74.8,73.6,30.00,North,0,0.0,2.0,96,0.00,,---,0.00,VWS V14.01,2013-09-19 04:15:00,
2013-09-19 00:30:00,74.8,73.6,30.00,North,0,0.0,2.0,96,0.00,,---,0.00,VWS V14.01,2013-09-19 04:30:00,
2013-09-19 00:45:00,74.9,74.0,29.99,North,0,0.0,1.0,97,0.00,,---,0.00,VWS V14.01,2013-09-19 04:45:00,
2013-09-19 01:00:00,74.8,73.9,29.99,North,0,0.0,0.0,97,0.00,,---,0.00,VWS V14.01,2013-09-19 05:00:00,
2013-09-19 01:15:00,74.8,73.9,29.99,NE,45,0.0,1.0,97,0.00,,---,0.00,VWS V14.01,2013-09-19 05:15:00,
2013-09-19 01:30:00,74.7,73.8,29.98,NE,45,0.0,1.0,97,0.00,,---,0.00,VWS V14.01,2013-09-19 05:30:00,
2013-09-19 01:45:00,74.6,73.7,29.98,NE,45,0.0,0.0,97,0.00,,---,0.00,VWS V14.01,2013-09-19 05:45:00,
2013-09-19 02:00:00,74.5,73.9,29.98,NE,45,0.0,0.0,98,0.00,,---,0.00,VWS V14.01,2013-09-19 06:00:00,
2013-09-19 02:15:00,74.5,73.9,29.97,NE,45,0.0,0.0,98,0.00,,---,0.00,VWS V14.01,2013-09-19 06:15:00,
2013-09-19 02:30:00,74.4,73.8,29.96,NE,45,0.0,1.0,98,0.00,,---,0.00,VWS V14.01,2013-09-19 06:30:00,
2013-09-19 02:45:00,74.5,73.9,29.96,North,0,0.0,3.0,98,0.00,,---,0.00,VWS V14.01,2013-09-19 06:45:00,
2013-09-19 03:00:00,74.5,73.9,29.96,North,0,0.0,1.0,98,0.00,,---,0.00,VWS V14.01,2013-09-19 07:00:00,
2013-09-19 03:15:00,74.5,73.6,29.95,North,0,0.0,2.0,97,0.00,,---,0.00,VWS V14.01,2013-09-19 07:15:00,
2013-09-19 03:30:00,74.5,73.6,29.95,North,0,0.0,2.0,97,0.00,,---,0.00,VWS V14.01,2013-09-19 07:30:00,
2013-09-19 03:45:00,74.4,73.8,29.95,North,0,0.0,1.0,98,0.00,,---,0.00,VWS V14.01,2013-09-19 07:45:00,
2013-09-19 04:00:00,74.4,73.8,29.94,North,0,0.0,2.0,98,0.00,,---,0.00,VWS V14.01,2013-09-19 08:00:00,
2013-09-19 04:15:00,74.4,73.8,29.94,North,0,0.0,2.0,98,0.00,,---,0.00,VWS V14.01,2013-09-19 08:15:00,
2013-09-19 04:30:00,74.4,73.8,29.93,North,0,0.0,2.0,98,0.00,,---,0.00,VWS V14.01,2013-09-19 08:30:00,
2013-09-19 04:45:00,74.4,73.8,29.93,NNW,338,0.0,1.0,98,0.00,,---,0.00,VWS V14.01,2013-09-19 08:45:00,
2013-09-19 05:00:00,74.4,73.8,29.93,North,0,0.0,2.0,98,0.00,,---,0.00,VWS V14.01,2013-09-19 09:00:00,
2013-09-19 05:15:00,74.4,73.8,29.94,North,0,0.0,1.0,98,0.00,,---,0.00,VWS V14.01,2013-09-19 09:15:00,
2013-09-19 05:30:00,74.5,73.9,29.93,North,0,0.0,1.0,98,0.00,,---,0.00,VWS V14.01,2013-09-19 09:30:00,
2013-09-19 05:45:00,74.5,73.9,29.94,North,0,0.0,1.0,98,0.00,,---,0.00,VWS V14.01,2013-09-19 09:45:00,
2013-09-19 06:00:00,74.6,74.0,29.95,North,0,0.0,1.0,98,0.01,,---,0.01,VWS V14.01,2013-09-19 10:00:00,
2013-09-19 06:15:00,74.6,74.0,29.95,North,0,0.0,1.0,98,0.01,,---,0.01,VWS V14.01,2013-09-19 10:15:00,
2013-09-19 06:30:00,74.6,74.0,29.95,North,0,0.0,1.0,98,0.01,,---,0.01,VWS V14.01,2013-09-19 10:30:00,
2013-09-19 06:45:00,74.7,74.1,29.95,North,0,0.0,1.0,98,0.01,,---,0.01,VWS V14.01,2013-09-19 10:45:00,
2013-09-19 07:00:00,74.8,74.2,29.96,North,0,0.0,1.0,98,0.01,,---,0.01,VWS V14.01,2013-09-19 11:00:00,
2013-09-19 07:15:00,74.8,74.2,29.96,North,0,0.0,1.0,98,0.00,,---,0.01,VWS V14.01,2013-09-19 11:15:00,
2013-09-19 07:30:00,75.1,74.8,29.97,North,0,0.0,1.0,99,0.00,,---,0.01,VWS V14.01,2013-09-19 11:30:00,
2013-09-19 07:45:00,75.8,75.2,29.97,NNW,338,0.0,1.0,98,0.00,,---,0.01,VWS V14.01,2013-09-19 11:45:00,
2013-09-19 08:00:00,76.9,76.0,29.97,NNW,338,0.0,1.0,97,0.00,,---,0.01,VWS V14.01,2013-09-19 12:00:00,
2013-09-19 08:15:00,78.0,76.8,29.98,NNW,338,0.0,1.0,96,0.00,,---,0.01,VWS V14.01,2013-09-19 12:15:00,
2013-09-19 08:30:00,79.2,76.7,29.98,NNE,22,1.0,3.0,92,0.00,,---,0.01,VWS V14.01,2013-09-19 12:30:00,
2013-09-19 08:45:00,80.4,77.5,29.99,North,0,0.0,3.0,91,0.00,,---,0.01,VWS V14.01,2013-09-19 12:45:00,
2013-09-19 09:00:00,81.6,78.1,29.99,North,0,1.0,2.0,89,0.00,,---,0.01,VWS V14.01,2013-09-19 13:00:00,
2013-09-19 09:15:00,82.8,77.8,29.99,North,0,1.0,3.0,85,0.00,,---,0.01,VWS V14.01,2013-09-19 13:15:00,
2013-09-19 09:30:00,83.9,78.2,30.00,North,0,1.0,4.0,83,0.00,,---,0.01,VWS V14.01,2013-09-19 13:30:00,
2013-09-19 09:45:00,84.5,78.4,30.00,East,90,2.0,5.0,82,0.00,,---,0.01,VWS V14.01,2013-09-19 13:45:00,
2013-09-19 10:00:00,85.9,78.6,30.00,East,90,1.0,4.0,79,0.00,,---,0.01,VWS V14.01,2013-09-19 14:00:00,
2013-09-19 10:15:00,85.3,77.3,30.00,East,90,2.0,5.0,77,0.00,,---,0.01,VWS V14.01,2013-09-19 14:15:00,
2013-09-19 10:30:00,85.6,77.2,30.00,East,90,2.0,6.0,76,0.00,,---,0.01,VWS V14.01,2013-09-19 14:30:00,
2013-09-19 10:45:00,86.3,75.8,30.00,East,90,3.0,9.0,71,0.00,,---,0.01,VWS V14.01,2013-09-19 14:45:00,
2013-09-19 11:00:00,86.2,76.9,30.00,East,90,2.0,7.0,74,0.00,,---,0.01,VWS V14.01,2013-09-19 15:00:00,
2013-09-19 11:15:00,87.1,77.0,30.01,East,90,3.0,9.0,72,0.00,,---,0.01,VWS V14.01,2013-09-19 15:15:00,
2013-09-19 11:30:00,85.5,75.4,30.01,East,90,5.0,12.0,72,0.00,,---,0.01,VWS V14.01,2013-09-19 15:30:00,
2013-09-19 11:45:00,86.1,76.4,30.01,East,90,5.0,13.0,73,0.00,,---,0.01,VWS V14.01,2013-09-19 15:45:00,
2013-09-19 12:00:00,87.8,77.2,30.00,East,90,4.0,9.0,71,0.00,,---,0.01,VWS V14.01,2013-09-19 16:00:00,
2013-09-19 12:15:00,88.1,75.8,30.00,East,90,5.0,11.0,67,0.00,,---,0.01,VWS V14.01,2013-09-19 16:15:00,
2013-09-19 12:30:00,88.6,76.2,30.00,East,90,5.0,10.0,67,0.00,,---,0.01,VWS V14.01,2013-09-19 16:30:00,
2013-09-19 12:45:00,88.3,75.5,30.00,East,90,5.0,12.0,66,0.00,,---,0.01,VWS V14.01,2013-09-19 16:45:00,
2013-09-19 13:00:00,88.1,76.2,29.99,East,90,5.0,10.0,68,0.00,,---,0.01,VWS V14.01,2013-09-19 17:00:00,
2013-09-19 13:15:00,87.8,76.4,29.98,East,90,5.0,10.0,69,0.00,,---,0.01,VWS V14.01,2013-09-19 17:15:00,
2013-09-19 13:30:00,87.8,76.4,29.98,East,90,4.0,12.0,69,0.00,,---,0.01,VWS V14.01,2013-09-19 17:30:00,
2013-09-19 13:45:00,87.4,76.4,29.97,East,90,5.0,10.0,70,0.00,,---,0.01,VWS V14.01,2013-09-19 17:45:00,
2013-09-19 14:00:00,87.9,75.6,29.97,East,90,5.0,10.0,67,0.00,,---,0.01,VWS V14.01,2013-09-19 18:00:00,
2013-09-19 14:15:00,88.4,76.9,29.96,East,90,4.0,11.0,69,0.00,,---,0.01,VWS V14.01,2013-09-19 18:15:00,
2013-09-19 14:30:00,86.8,75.8,29.96,East,90,5.0,15.0,70,0.00,,---,0.01,VWS V14.01,2013-09-19 18:30:00,
2013-09-19 14:45:00,85.7,75.2,29.96,East,90,5.0,15.0,71,0.00,,---,0.01,VWS V14.01,2013-09-19 18:45:00,
2013-09-19 15:00:00,85.2,76.0,29.96,East,90,5.0,11.0,74,0.00,,---,0.01,VWS V14.01,2013-09-19 19:00:00,
2013-09-19 15:15:00,85.0,76.6,29.96,East,90,5.0,11.0,76,0.00,,---,0.01,VWS V14.01,2013-09-19 19:15:00,
2013-09-19 15:30:00,84.8,76.4,29.95,East,90,4.0,11.0,76,0.00,,---,0.01,VWS V14.01,2013-09-19 19:30:00,
2013-09-19 15:45:00,84.7,75.9,29.96,East,90,3.0,9.0,75,0.00,,---,0.01,VWS V14.01,2013-09-19 19:45:00,
2013-09-19 16:00:00,84.6,75.8,29.96,East,90,3.0,10.0,75,0.00,,---,0.01,VWS V14.01,2013-09-19 20:00:00,
2013-09-19 16:15:00,84.1,76.5,29.95,East,90,4.0,9.0,78,0.00,,---,0.01,VWS V14.01,2013-09-19 20:15:00,
2013-09-19 16:30:00,83.7,76.1,29.96,East,90,3.0,10.0,78,0.00,,---,0.01,VWS V14.01,2013-09-19 20:30:00,
2013-09-19 16:45:00,83.5,75.5,29.95,East,90,3.0,9.0,77,0.00,,---,0.01,VWS V14.01,2013-09-19 20:45:00,
2013-09-19 17:00:00,83.4,75.4,29.95,East,90,3.0,10.0,77,0.00,,---,0.01,VWS V14.01,2013-09-19 21:00:00,
2013-09-19 17:15:00,83.6,76.0,29.95,East,90,5.0,11.0,78,0.00,,---,0.01,VWS V14.01,2013-09-19 21:15:00,
2013-09-19 17:30:00,83.8,76.2,29.95,East,90,4.0,12.0,78,0.00,,---,0.01,VWS V14.01,2013-09-19 21:30:00,
2013-09-19 17:45:00,83.9,76.3,29.96,East,90,4.0,10.0,78,0.00,,---,0.01,VWS V14.01,2013-09-19 21:45:00,
2013-09-19 18:00:00,83.7,75.3,29.97,East,90,5.0,13.0,76,0.00,,---,0.01,VWS V14.01,2013-09-19 22:00:00,
2013-09-19 18:15:00,83.7,75.3,29.97,East,90,4.0,10.0,76,0.00,,---,0.01,VWS V14.01,2013-09-19 22:15:00,
2013-09-19 18:30:00,83.4,75.4,29.97,East,90,4.0,10.0,77,0.00,,---,0.01,VWS V14.01,2013-09-19 22:30:00,
2013-09-19 18:45:00,82.8,75.6,29.97,East,90,4.0,10.0,79,0.00,,---,0.01,VWS V14.01,2013-09-19 22:45:00,
2013-09-19 19:00:00,81.0,75.3,29.98,SE,135,4.0,10.0,83,0.00,,---,0.01,VWS V14.01,2013-09-19 23:00:00,
2013-09-19 19:15:00,80.2,75.3,29.98,East,90,3.0,7.0,85,0.00,,---,0.01,VWS V14.01,2013-09-19 23:15:00,
2013-09-19 19:30:00,80.7,75.8,29.98,East,90,3.0,8.0,85,0.00,,---,0.01,VWS V14.01,2013-09-19 23:30:00,
2013-09-19 19:45:00,80.8,75.9,29.98,East,90,2.0,8.0,85,0.00,,---,0.01,VWS V14.01,2013-09-19 23:45:00,
2013-09-19 20:00:00,80.6,75.7,29.98,East,90,2.0,8.0,85,0.00,,---,0.01,VWS V14.01,2013-09-20 00:00:00,
2013-09-19 20:15:00,80.5,74.9,29.99,East,90,2.0,8.0,83,0.00,,---,0.01,VWS V14.01,2013-09-20 00:15:00,
2013-09-19 20:30:00,78.6,75.4,29.99,East,90,4.0,13.0,90,0.00,,---,0.01,VWS V14.01,2013-09-20 00:30:00,
2013-09-19 20:45:00,78.3,75.8,29.99,East,90,2.0,8.0,92,0.06,,---,0.07,VWS V14.01,2013-09-20 00:45:00,
2013-09-19 21:00:00,78.0,76.1,30.00,ENE,68,0.0,3.0,94,0.06,,---,0.07,VWS V14.01,2013-09-20 01:00:00,
2013-09-19 21:15:00,77.9,76.4,30.00,North,0,0.0,2.0,95,0.06,,---,0.07,VWS V14.01,2013-09-20 01:15:00,
2013-09-19 21:30:00,77.8,76.3,30.00,North,0,0.0,2.0,95,0.07,,---,0.08,VWS V14.01,2013-09-20 01:30:00,
2013-09-19 21:45:00,77.7,75.8,30.00,East,90,0.0,2.0,94,0.07,,---,0.08,VWS V14.01,2013-09-20 01:45:00,
2013-09-19 22:00:00,78.2,75.7,30.01,East,90,2.0,5.0,92,0.01,,---,0.08,VWS V14.01,2013-09-20 02:00:00,
2013-09-19 22:15:00,78.2,76.3,30.01,SSE,158,0.0,3.0,94,0.01,,---,0.08,VWS V14.01,2013-09-20 02:15:00,
2013-09-19 22:30:00,78.1,76.6,30.02,South,180,0.0,3.0,95,0.01,,---,0.08,VWS V14.01,2013-09-20 02:30:00,
2013-09-19 22:45:00,77.8,76.3,30.02,South,180,0.0,0.0,95,0.00,,---,0.08,VWS V14.01,2013-09-20 02:45:00,
2013-09-19 23:00:00,77.8,76.6,30.01,South,180,0.0,0.0,96,0.00,,---,0.08,VWS V14.01,2013-09-20 03:00:00,
2013-09-19 23:15:00,77.4,75.5,30.01,North,0,0.0,1.0,94,0.00,,---,0.08,VWS V14.01,2013-09-20 03:15:00,
2013-09-19 23:30:00,77.0,75.1,30.00,North,0,0.0,0.0,94,0.00,,---,0.08,VWS V14.01,2013-09-20 03:30:00,
2013-09-19 23:45:00,76.6,74.4,30.00,North,0,0.0,0.0,93,0.00,,---,0.08,VWS V14.01,2013-09-20 03:45:00,